Terminal Aerodrome Forecast
Issued by NWS Grand Rapids, MI

Home | Current Version | Previous Version | Text Only | Print | Product List | Glossary On
Versions: 1 2 3 4 5 6 7 8 9 10 11 12 13 14 15 16 17 18
000
FTUS43 KGRR 271800 AAA
TAFGRR
TAF AMD
KGRR 271804Z 2718/2818 21016G24KT P6SM OVC006
      TEMPO 2718/2722 4SM -SHRA BR
     FM272200 27014G22KT 4SM BR OVC012
     FM280200 28010KT P6SM OVC015
     FM281500 28006KT P6SM FEW025=

USA.gov is the U.S. government's official web portal to all federal, state and local government web resources and services.